Estación Meteorológica Peña el Pijo (Robertgarden) [ 01/30/23 15:21:13 CET ]

Fecha Hora Presion(HPa) Temp (°C) Humedad % Rocio (°C) Viento ( m/s) Direccion Lluvia 1Hora(mm) Lluvia 24H(mm) LLuvia Total(mm)
2012-Apr-18 01:01:18 1006.200 8.9 58 1.1         158.50
2012-Apr-18 02:01:15 1005.400 7.2 65 1.0         158.50
2012-Apr-18 03:03:13 1004.800 8.8 70 3.6         158.50
2012-Apr-18 04:01:13 1003.500 9.5 70 4.3 1.4 ESE     158.50
2012-Apr-18 05:01:12 1002.300 9.2 67 3.4         158.50
2012-Apr-18 06:01:14 1001.400 8.7 65 2.5         158.50
2012-Apr-18 07:01:16 1001.200 8.1 67 2.3 0.9 S     158.50
2012-Apr-18 08:01:17 1001.100 7.9 68 2.4 2.4 NNW     158.50
2012-Apr-18 09:01:13 1001.000 8.1 67 2.3         158.50
2012-Apr-18 10:01:18 1001.700 9.3 61 2.2         158.50
2012-Apr-18 11:01:14 1002.000 11.4 51 1.6         158.50
2012-Apr-18 12:01:21 1002.000 13.0 45 1.2 2.4 SSW     158.50
2012-Apr-18 13:01:14 1002.200 13.8 41 0.7 2.9 SSE     158.50
2012-Apr-18 14:01:18 1001.800 14.2 40 0.8         158.50
2012-Apr-18 15:01:15 1001.400 14.8 37 0.1 3.1 SSW     158.50
2012-Apr-18 16:01:14 1000.600 15.3 35 -0.2 1.4 NNE     158.50
2012-Apr-18 17:01:16 1000.000 14.2 37 -0.4         158.50
2012-Apr-18 18:01:14 1000.000 12.6 42 -0.0 1.6 NE     158.50
2012-Apr-18 19:01:20 999.700 11.3 45 -0.3 0.9 E     158.50
2012-Apr-18 20:01:15 999.500 10.2 50 0.3         158.50
2012-Apr-18 21:01:19 999.200 9.5 52 0.1 1.4 WSW     158.50
2012-Apr-18 22:01:13 999.400 8.9 55 0.3 1.4 E     158.50
2012-Apr-18 23:01:16 999.600 8.5 57 0.4 2.9 ENE     158.50

Temperatura Máxima:15°    Temperatura Mínima:
Presión Máxima:1006.200 Hpa    Presión Mínima:999.200 Hpa


Volver